sensor_id;sensor_type;location;lat;lon;timestamp;pressure;altitude;pressure_sealevel;temperature;humidity
4326;BME280;58429;49.826;10.880;2022-10-16T00:00:21;98512;;;15.63;86.2
4326;BME280;58429;49.826;10.880;2022-10-16T00:01:22;98507;;;15.65;86.23
4326;BME280;58429;49.826;10.880;2022-10-16T00:02:21;98508;;;15.62;86.32
4326;BME280;58429;49.826;10.880;2022-10-16T00:03:21;98506;;;15.61;86.28
4326;BME280;58429;49.826;10.880;2022-10-16T00:04:21;98509;;;15.59;86.33
4326;BME280;58429;49.826;10.880;2022-10-16T00:05:21;98507;;;15.63;86.27
4326;BME280;58429;49.826;10.880;2022-10-16T00:06:21;98509;;;15.64;86.29
4326;BME280;58429;49.826;10.880;2022-10-16T00:07:21;98507;;;15.62;86.26
4326;BME280;58429;49.826;10.880;2022-10-16T00:08:21;98504;;;15.59;86.26
4326;BME280;58429;49.826;10.880;2022-10-16T00:09:21;98503;;;15.59;86.29
4326;BME280;58429;49.826;10.880;2022-10-16T00:10:21;98508;;;15.61;86.31
4326;BME280;58429;49.826;10.880;2022-10-16T00:11:22;98513;;;15.59;86.32
4326;BME280;58429;49.826;10.880;2022-10-16T00:12:21;98512;;;15.62;86.22
4326;BME280;58429;49.826;10.880;2022-10-16T00:13:21;98509;;;15.61;86.16
4326;BME280;58429;49.826;10.880;2022-10-16T00:14:21;98517;;;15.62;86.16
4326;BME280;58429;49.826;10.880;2022-10-16T00:15:21;98515;;;15.61;86.15
4326;BME280;58429;49.826;10.880;2022-10-16T00:16:21;98508;;;15.58;86.15
4326;BME280;58429;49.826;10.880;2022-10-16T00:17:21;98512;;;15.59;86.2
4326;BME280;58429;49.826;10.880;2022-10-16T00:18:21;98506;;;15.59;86.16
4326;BME280;58429;49.826;10.880;2022-10-16T00:19:21;98516;;;15.63;86.18
4326;BME280;58429;49.826;10.880;2022-10-16T00:20:21;98516;;;15.65;86.21
4326;BME280;58429;49.826;10.880;2022-10-16T00:21:21;98504;;;15.62;86.29
4326;BME280;58429;49.826;10.880;2022-10-16T00:22:21;98515;;;15.62;86.33
4326;BME280;58429;49.826;10.880;2022-10-16T00:23:21;98518;;;15.62;86.37
4326;BME280;58429;49.826;10.880;2022-10-16T00:24:21;98515;;;15.6;86.39
4326;BME280;58429;49.826;10.880;2022-10-16T00:25:21;98511;;;15.59;86.37
4326;BME280;58429;49.826;10.880;2022-10-16T00:26:21;98496;;;15.58;86.39
4326;BME280;58429;49.826;10.880;2022-10-16T00:27:21;98508;;;15.62;86.43
4326;BME280;58429;49.826;10.880;2022-10-16T00:28:21;98504;;;15.61;86.43
4326;BME280;58429;49.826;10.880;2022-10-16T00:29:21;98505;;;15.62;86.48
4326;BME280;58429;49.826;10.880;2022-10-16T00:30:21;98509;;;15.57;86.49
4326;BME280;58429;49.826;10.880;2022-10-16T00:31:21;98504;;;15.58;86.5
4326;BME280;58429;49.826;10.880;2022-10-16T00:32:21;98501;;;15.58;86.53
4326;BME280;58429;49.826;10.880;2022-10-16T00:33:21;98507;;;15.58;86.56
4326;BME280;58429;49.826;10.880;2022-10-16T00:34:21;98506;;;15.59;86.55
4326;BME280;58429;49.826;10.880;2022-10-16T00:35:21;98506;;;15.58;86.57
4326;BME280;58429;49.826;10.880;2022-10-16T00:36:22;98507;;;15.55;86.58
4326;BME280;58429;49.826;10.880;2022-10-16T00:37:21;98508;;;15.54;86.58
4326;BME280;58429;49.826;10.880;2022-10-16T00:38:21;98508;;;15.52;86.61
4326;BME280;58429;49.826;10.880;2022-10-16T00:39:21;98513;;;15.55;86.62
4326;BME280;58429;49.826;10.880;2022-10-16T00:40:21;98504;;;15.52;86.55
4326;BME280;58429;49.826;10.880;2022-10-16T00:41:22;98506;;;15.53;86.53
4326;BME280;58429;49.826;10.880;2022-10-16T00:42:21;98504;;;15.52;86.52
4326;BME280;58429;49.826;10.880;2022-10-16T00:43:38;98507;;;15.53;86.56
4326;BME280;58429;49.826;10.880;2022-10-16T00:44:54;98507;;;15.5;86.55
4326;BME280;58429;49.826;10.880;2022-10-16T00:45:21;98503;;;15.45;86.54
4326;BME280;58429;49.826;10.880;2022-10-16T00:46:22;98497;;;15.5;86.54
4326;BME280;58429;49.826;10.880;2022-10-16T00:47:22;98495;;;15.5;86.54
4326;BME280;58429;49.826;10.880;2022-10-16T00:48:21;98491;;;15.48;86.54
4326;BME280;58429;49.826;10.880;2022-10-16T00:49:21;98500;;;15.48;86.53
4326;BME280;58429;49.826;10.880;2022-10-16T00:50:22;98500;;;15.49;86.55
4326;BME280;58429;49.826;10.880;2022-10-16T00:51:22;98495;;;15.44;86.53
4326;BME280;58429;49.826;10.880;2022-10-16T00:52:21;98498;;;15.44;86.52
4326;BME280;58429;49.826;10.880;2022-10-16T00:53:21;98493;;;15.43;86.57
4326;BME280;58429;49.826;10.880;2022-10-16T00:54:22;98501;;;15.42;86.57
4326;BME280;58429;49.826;10.880;2022-10-16T00:55:21;98499;;;15.43;86.58
4326;BME280;58429;49.826;10.880;2022-10-16T00:56:21;98504;;;15.43;86.56
4326;BME280;58429;49.826;10.880;2022-10-16T00:57:21;98502;;;15.41;86.62
4326;BME280;58429;49.826;10.880;2022-10-16T00:58:21;98503;;;15.37;86.57
4326;BME280;58429;49.826;10.880;2022-10-16T00:59:22;98503;;;15.4;86.55
4326;BME280;58429;49.826;10.880;2022-10-16T01:00:26;98499;;;15.38;86.53
4326;BME280;58429;49.826;10.880;2022-10-16T01:01:21;98495;;;15.39;86.51
4326;BME280;58429;49.826;10.880;2022-10-16T01:02:21;98497;;;15.42;86.5
4326;BME280;58429;49.826;10.880;2022-10-16T01:03:23;98500;;;15.38;86.49
4326;BME280;58429;49.826;10.880;2022-10-16T01:04:21;98504;;;15.38;86.51
4326;BME280;58429;49.826;10.880;2022-10-16T01:05:21;98511;;;15.42;86.57
4326;BME280;58429;49.826;10.880;2022-10-16T01:06:22;98515;;;15.39;86.55
4326;BME280;58429;49.826;10.880;2022-10-16T01:07:25;98512;;;15.4;86.56
4326;BME280;58429;49.826;10.880;2022-10-16T01:08:22;98521;;;15.38;86.59
4326;BME280;58429;49.826;10.880;2022-10-16T01:09:22;98524;;;15.38;86.63
4326;BME280;58429;49.826;10.880;2022-10-16T01:10:23;98527;;;15.38;86.61
4326;BME280;58429;49.826;10.880;2022-10-16T01:11:22;98529;;;15.4;86.66
4326;BME280;58429;49.826;10.880;2022-10-16T01:12:23;98521;;;15.38;86.63
4326;BME280;58429;49.826;10.880;2022-10-16T01:13:22;98526;;;15.39;86.64
4326;BME280;58429;49.826;10.880;2022-10-16T01:14:22;98527;;;15.36;86.66
4326;BME280;58429;49.826;10.880;2022-10-16T01:15:23;98524;;;15.39;86.65
4326;BME280;58429;49.826;10.880;2022-10-16T01:16:23;98524;;;15.38;86.61
4326;BME280;58429;49.826;10.880;2022-10-16T01:17:22;98522;;;15.38;86.66
4326;BME280;58429;49.826;10.880;2022-10-16T01:18:22;98515;;;15.39;86.64
4326;BME280;58429;49.826;10.880;2022-10-16T01:19:25;98521;;;15.38;86.67
4326;BME280;58429;49.826;10.880;2022-10-16T01:20:24;98517;;;15.38;86.68
4326;BME280;58429;49.826;10.880;2022-10-16T01:21:22;98505;;;15.37;86.68
4326;BME280;58429;49.826;10.880;2022-10-16T01:22:21;98505;;;15.37;86.73
4326;BME280;58429;49.826;10.880;2022-10-16T01:23:25;98507;;;15.35;86.77
4326;BME280;58429;49.826;10.880;2022-10-16T01:24:25;98511;;;15.36;86.76
4326;BME280;58429;49.826;10.880;2022-10-16T01:25:23;98514;;;15.36;86.77
4326;BME280;58429;49.826;10.880;2022-10-16T01:26:26;98512;;;15.36;86.68
4326;BME280;58429;49.826;10.880;2022-10-16T01:27:22;98515;;;15.36;86.66
4326;BME280;58429;49.826;10.880;2022-10-16T01:28:21;98513;;;15.37;86.63
4326;BME280;58429;49.826;10.880;2022-10-16T01:29:23;98512;;;15.36;86.65
4326;BME280;58429;49.826;10.880;2022-10-16T01:30:23;98516;;;15.36;86.67
4326;BME280;58429;49.826;10.880;2022-10-16T01:31:22;98508;;;15.36;86.66
4326;BME280;58429;49.826;10.880;2022-10-16T01:32:23;98507;;;15.35;86.68
4326;BME280;58429;49.826;10.880;2022-10-16T01:33:22;98499;;;15.36;86.71
4326;BME280;58429;49.826;10.880;2022-10-16T01:34:22;98509;;;15.36;86.68
4326;BME280;58429;49.826;10.880;2022-10-16T01:35:22;98511;;;15.36;86.66
4326;BME280;58429;49.826;10.880;2022-10-16T01:36:23;98510;;;15.35;86.67
4326;BME280;58429;49.826;10.880;2022-10-16T01:37:22;98512;;;15.35;86.71
4326;BME280;58429;49.826;10.880;2022-10-16T01:38:22;98512;;;15.37;86.69
4326;BME280;58429;49.826;10.880;2022-10-16T01:39:22;98516;;;15.35;86.7
4326;BME280;58429;49.826;10.880;2022-10-16T01:40:21;98518;;;15.35;86.72
4326;BME280;58429;49.826;10.880;2022-10-16T01:41:22;98518;;;15.34;86.68
4326;BME280;58429;49.826;10.880;2022-10-16T01:42:22;98520;;;15.38;86.73
4326;BME280;58429;49.826;10.880;2022-10-16T01:43:22;98532;;;15.34;86.66
4326;BME280;58429;49.826;10.880;2022-10-16T01:44:22;98527;;;15.34;86.64
4326;BME280;58429;49.826;10.880;2022-10-16T01:45:21;98531;;;15.32;86.64
4326;BME280;58429;49.826;10.880;2022-10-16T01:46:21;98537;;;15.33;86.65
4326;BME280;58429;49.826;10.880;2022-10-16T01:47:21;98534;;;15.32;86.7
4326;BME280;58429;49.826;10.880;2022-10-16T01:48:21;98537;;;15.33;86.69
4326;BME280;58429;49.826;10.880;2022-10-16T01:49:21;98538;;;15.32;86.72
4326;BME280;58429;49.826;10.880;2022-10-16T01:50:21;98539;;;15.34;86.77
4326;BME280;58429;49.826;10.880;2022-10-16T01:51:21;98534;;;15.34;86.74
4326;BME280;58429;49.826;10.880;2022-10-16T01:52:21;98542;;;15.35;86.74
4326;BME280;58429;49.826;10.880;2022-10-16T01:53:21;98543;;;15.35;86.75
4326;BME280;58429;49.826;10.880;2022-10-16T01:54:21;98540;;;15.35;86.72
4326;BME280;58429;49.826;10.880;2022-10-16T01:55:24;98547;;;15.35;86.72
4326;BME280;58429;49.826;10.880;2022-10-16T01:56:21;98542;;;15.33;86.69
4326;BME280;58429;49.826;10.880;2022-10-16T01:57:21;98545;;;15.36;86.64
4326;BME280;58429;49.826;10.880;2022-10-16T01:58:21;98542;;;15.37;86.6
4326;BME280;58429;49.826;10.880;2022-10-16T01:59:22;98543;;;15.37;86.61
4326;BME280;58429;49.826;10.880;2022-10-16T02:00:21;98541;;;15.37;86.62
4326;BME280;58429;49.826;10.880;2022-10-16T02:01:22;98540;;;15.37;86.59
4326;BME280;58429;49.826;10.880;2022-10-16T02:02:21;98540;;;15.35;86.59
4326;BME280;58429;49.826;10.880;2022-10-16T02:03:21;98533;;;15.38;86.57
4326;BME280;58429;49.826;10.880;2022-10-16T02:04:23;98528;;;15.36;86.6
4326;BME280;58429;49.826;10.880;2022-10-16T02:05:22;98542;;;15.36;86.6
4326;BME280;58429;49.826;10.880;2022-10-16T02:06:21;98537;;;15.38;86.64
4326;BME280;58429;49.826;10.880;2022-10-16T02:07:21;98536;;;15.38;86.65
4326;BME280;58429;49.826;10.880;2022-10-16T02:08:22;98540;;;15.37;86.69
4326;BME280;58429;49.826;10.880;2022-10-16T02:09:21;98539;;;15.38;86.7
4326;BME280;58429;49.826;10.880;2022-10-16T02:10:21;98534;;;15.38;86.7
4326;BME280;58429;49.826;10.880;2022-10-16T02:11:21;98535;;;15.36;86.7
4326;BME280;58429;49.826;10.880;2022-10-16T02:12:23;98531;;;15.37;86.71
4326;BME280;58429;49.826;10.880;2022-10-16T02:13:22;98532;;;15.35;86.76
4326;BME280;58429;49.826;10.880;2022-10-16T02:14:21;98527;;;15.37;86.79
4326;BME280;58429;49.826;10.880;2022-10-16T02:15:21;98529;;;15.38;86.79
4326;BME280;58429;49.826;10.880;2022-10-16T02:16:23;98522;;;15.37;86.8
4326;BME280;58429;49.826;10.880;2022-10-16T02:17:21;98519;;;15.38;86.8
4326;BME280;58429;49.826;10.880;2022-10-16T02:18:21;98518;;;15.36;86.82
4326;BME280;58429;49.826;10.880;2022-10-16T02:19:21;98528;;;15.35;86.83
4326;BME280;58429;49.826;10.880;2022-10-16T02:20:23;98527;;;15.35;86.84
4326;BME280;58429;49.826;10.880;2022-10-16T02:21:22;98525;;;15.36;86.82
4326;BME280;58429;49.826;10.880;2022-10-16T02:22:22;98519;;;15.35;86.87
4326;BME280;58429;49.826;10.880;2022-10-16T02:23:23;98525;;;15.35;86.86
4326;BME280;58429;49.826;10.880;2022-10-16T02:24:23;98527;;;15.37;86.86
4326;BME280;58429;49.826;10.880;2022-10-16T02:25:22;98521;;;15.36;86.86
4326;BME280;58429;49.826;10.880;2022-10-16T02:26:23;98524;;;15.34;86.86
4326;BME280;58429;49.826;10.880;2022-10-16T02:27:23;98531;;;15.35;86.9
4326;BME280;58429;49.826;10.880;2022-10-16T02:28:22;98523;;;15.35;86.95
4326;BME280;58429;49.826;10.880;2022-10-16T02:29:22;98527;;;15.36;86.94
4326;BME280;58429;49.826;10.880;2022-10-16T02:30:22;98527;;;15.37;86.92
4326;BME280;58429;49.826;10.880;2022-10-16T02:31:23;98528;;;15.35;86.92
4326;BME280;58429;49.826;10.880;2022-10-16T02:32:22;98535;;;15.36;86.96
4326;BME280;58429;49.826;10.880;2022-10-16T02:33:21;98528;;;15.36;87.02
4326;BME280;58429;49.826;10.880;2022-10-16T02:34:21;98543;;;15.35;86.97
4326;BME280;58429;49.826;10.880;2022-10-16T02:35:21;98537;;;15.35;86.95
4326;BME280;58429;49.826;10.880;2022-10-16T02:36:21;98547;;;15.34;86.88
4326;BME280;58429;49.826;10.880;2022-10-16T02:37:21;98543;;;15.37;86.85
4326;BME280;58429;49.826;10.880;2022-10-16T02:38:21;98539;;;15.36;86.77
4326;BME280;58429;49.826;10.880;2022-10-16T02:39:21;98542;;;15.36;86.73
4326;BME280;58429;49.826;10.880;2022-10-16T02:40:21;98551;;;15.36;86.73
4326;BME280;58429;49.826;10.880;2022-10-16T02:41:21;98540;;;15.37;86.71
4326;BME280;58429;49.826;10.880;2022-10-16T02:42:26;98544;;;15.36;86.71
4326;BME280;58429;49.826;10.880;2022-10-16T02:43:21;98543;;;15.36;86.66
4326;BME280;58429;49.826;10.880;2022-10-16T02:44:21;98547;;;15.39;86.7
4326;BME280;58429;49.826;10.880;2022-10-16T02:45:21;98536;;;15.38;86.67
4326;BME280;58429;49.826;10.880;2022-10-16T02:46:21;98540;;;15.37;86.69
4326;BME280;58429;49.826;10.880;2022-10-16T02:47:21;98539;;;15.38;86.71
4326;BME280;58429;49.826;10.880;2022-10-16T02:48:21;98545;;;15.4;86.72
4326;BME280;58429;49.826;10.880;2022-10-16T02:49:21;98534;;;15.37;86.71
4326;BME280;58429;49.826;10.880;2022-10-16T02:50:21;98529;;;15.39;86.76
4326;BME280;58429;49.826;10.880;2022-10-16T02:51:21;98536;;;15.41;86.75
4326;BME280;58429;49.826;10.880;2022-10-16T02:52:21;98524;;;15.4;86.79
4326;BME280;58429;49.826;10.880;2022-10-16T02:53:21;98536;;;15.39;86.81
4326;BME280;58429;49.826;10.880;2022-10-16T02:54:21;98531;;;15.42;86.87
4326;BME280;58429;49.826;10.880;2022-10-16T02:55:21;98536;;;15.39;86.84
4326;BME280;58429;49.826;10.880;2022-10-16T02:56:21;98544;;;15.37;86.88
4326;BME280;58429;49.826;10.880;2022-10-16T02:57:21;98534;;;15.43;86.94
4326;BME280;58429;49.826;10.880;2022-10-16T02:58:21;98546;;;15.39;86.94
4326;BME280;58429;49.826;10.880;2022-10-16T02:59:21;98543;;;15.39;86.99
4326;BME280;58429;49.826;10.880;2022-10-16T03:00:21;98546;;;15.39;86.94
4326;BME280;58429;49.826;10.880;2022-10-16T03:01:21;98547;;;15.38;86.91
4326;BME280;58429;49.826;10.880;2022-10-16T03:02:21;98550;;;15.39;86.93
4326;BME280;58429;49.826;10.880;2022-10-16T03:03:21;98548;;;15.41;86.88
4326;BME280;58429;49.826;10.880;2022-10-16T03:04:21;98551;;;15.38;86.86
4326;BME280;58429;49.826;10.880;2022-10-16T03:05:21;98552;;;15.38;86.85
4326;BME280;58429;49.826;10.880;2022-10-16T03:06:21;98545;;;15.37;86.85
4326;BME280;58429;49.826;10.880;2022-10-16T03:07:21;98553;;;15.39;86.88
4326;BME280;58429;49.826;10.880;2022-10-16T03:08:21;98552;;;15.4;86.8
4326;BME280;58429;49.826;10.880;2022-10-16T03:09:21;98554;;;15.39;86.71
4326;BME280;58429;49.826;10.880;2022-10-16T03:10:21;98550;;;15.43;86.74
4326;BME280;58429;49.826;10.880;2022-10-16T03:11:21;98545;;;15.37;86.7
4326;BME280;58429;49.826;10.880;2022-10-16T03:12:21;98539;;;15.41;86.69
4326;BME280;58429;49.826;10.880;2022-10-16T03:13:21;98547;;;15.44;86.73
4326;BME280;58429;49.826;10.880;2022-10-16T03:14:21;98557;;;15.43;86.77
4326;BME280;58429;49.826;10.880;2022-10-16T03:15:21;98560;;;15.45;86.78
4326;BME280;58429;49.826;10.880;2022-10-16T03:16:21;98562;;;15.44;86.77
4326;BME280;58429;49.826;10.880;2022-10-16T03:17:21;98565;;;15.41;86.75
4326;BME280;58429;49.826;10.880;2022-10-16T03:18:21;98565;;;15.4;86.66
4326;BME280;58429;49.826;10.880;2022-10-16T03:19:21;98557;;;15.43;86.63
4326;BME280;58429;49.826;10.880;2022-10-16T03:20:21;98559;;;15.44;86.63
4326;BME280;58429;49.826;10.880;2022-10-16T03:21:21;98557;;;15.45;86.6
4326;BME280;58429;49.826;10.880;2022-10-16T03:22:21;98556;;;15.42;86.58
4326;BME280;58429;49.826;10.880;2022-10-16T03:23:21;98554;;;15.46;86.6
4326;BME280;58429;49.826;10.880;2022-10-16T03:24:21;98559;;;15.44;86.66
4326;BME280;58429;49.826;10.880;2022-10-16T03:25:21;98560;;;15.44;86.66
4326;BME280;58429;49.826;10.880;2022-10-16T03:26:21;98562;;;15.43;86.72
4326;BME280;58429;49.826;10.880;2022-10-16T03:27:21;98557;;;15.42;86.74
4326;BME280;58429;49.826;10.880;2022-10-16T03:28:21;98554;;;15.43;86.74
4326;BME280;58429;49.826;10.880;2022-10-16T03:29:21;98559;;;15.44;86.73
4326;BME280;58429;49.826;10.880;2022-10-16T03:30:21;98557;;;15.42;86.75
4326;BME280;58429;49.826;10.880;2022-10-16T03:31:21;98560;;;15.4;86.78
4326;BME280;58429;49.826;10.880;2022-10-16T03:32:21;98559;;;15.48;86.78
4326;BME280;58429;49.826;10.880;2022-10-16T03:33:21;98559;;;15.4;86.78
4326;BME280;58429;49.826;10.880;2022-10-16T03:34:21;98565;;;15.45;86.8
4326;BME280;58429;49.826;10.880;2022-10-16T03:35:22;98560;;;15.43;86.76
4326;BME280;58429;49.826;10.880;2022-10-16T03:36:21;98562;;;15.41;86.8
4326;BME280;58429;49.826;10.880;2022-10-16T03:37:21;98556;;;15.38;86.77
4326;BME280;58429;49.826;10.880;2022-10-16T03:38:21;98555;;;15.43;86.84
4326;BME280;58429;49.826;10.880;2022-10-16T03:39:21;98557;;;15.5;86.87
4326;BME280;58429;49.826;10.880;2022-10-16T03:40:21;98558;;;15.44;86.85
4326;BME280;58429;49.826;10.880;2022-10-16T03:41:21;98555;;;15.44;86.82
4326;BME280;58429;49.826;10.880;2022-10-16T03:42:21;98563;;;15.47;86.84
4326;BME280;58429;49.826;10.880;2022-10-16T03:43:21;98555;;;15.47;86.82
4326;BME280;58429;49.826;10.880;2022-10-16T03:44:21;98549;;;15.43;86.83
4326;BME280;58429;49.826;10.880;2022-10-16T03:45:21;98558;;;15.43;86.83
4326;BME280;58429;49.826;10.880;2022-10-16T03:46:21;98554;;;15.41;86.81
4326;BME280;58429;49.826;10.880;2022-10-16T03:47:21;98559;;;15.41;86.8
4326;BME280;58429;49.826;10.880;2022-10-16T03:48:21;98551;;;15.43;86.79
4326;BME280;58429;49.826;10.880;2022-10-16T03:49:21;98559;;;15.42;86.75
4326;BME280;58429;49.826;10.880;2022-10-16T03:50:21;98559;;;15.43;86.72
4326;BME280;58429;49.826;10.880;2022-10-16T03:51:22;98557;;;15.43;86.72
4326;BME280;58429;49.826;10.880;2022-10-16T03:52:21;98556;;;15.43;86.79
4326;BME280;58429;49.826;10.880;2022-10-16T03:53:21;98564;;;15.43;86.73
4326;BME280;58429;49.826;10.880;2022-10-16T03:54:21;98561;;;15.42;86.73
4326;BME280;58429;49.826;10.880;2022-10-16T03:55:21;98558;;;15.46;86.75
4326;BME280;58429;49.826;10.880;2022-10-16T03:56:21;98565;;;15.44;86.73
4326;BME280;58429;49.826;10.880;2022-10-16T03:57:21;98566;;;15.43;86.75
4326;BME280;58429;49.826;10.880;2022-10-16T03:58:21;98561;;;15.43;86.76
4326;BME280;58429;49.826;10.880;2022-10-16T03:59:21;98566;;;15.41;86.73
4326;BME280;58429;49.826;10.880;2022-10-16T04:00:21;98566;;;15.43;86.71
4326;BME280;58429;49.826;10.880;2022-10-16T04:01:21;98569;;;15.43;86.7
4326;BME280;58429;49.826;10.880;2022-10-16T04:02:21;98568;;;15.44;86.77
4326;BME280;58429;49.826;10.880;2022-10-16T04:03:21;98567;;;15.41;86.72
4326;BME280;58429;49.826;10.880;2022-10-16T04:04:21;98567;;;15.42;86.77
4326;BME280;58429;49.826;10.880;2022-10-16T04:05:21;98565;;;15.42;86.75
4326;BME280;58429;49.826;10.880;2022-10-16T04:06:21;98566;;;15.43;86.78
4326;BME280;58429;49.826;10.880;2022-10-16T04:07:22;98570;;;15.42;86.74
4326;BME280;58429;49.826;10.880;2022-10-16T04:08:21;98563;;;15.47;86.71
4326;BME280;58429;49.826;10.880;2022-10-16T04:09:21;98571;;;15.43;86.7
4326;BME280;58429;49.826;10.880;2022-10-16T04:10:21;98577;;;15.44;86.74
4326;BME280;58429;49.826;10.880;2022-10-16T04:11:21;98577;;;15.43;86.74
4326;BME280;58429;49.826;10.880;2022-10-16T04:12:21;98574;;;15.43;86.78
4326;BME280;58429;49.826;10.880;2022-10-16T04:13:21;98572;;;15.45;86.75
4326;BME280;58429;49.826;10.880;2022-10-16T04:14:21;98575;;;15.43;86.7
4326;BME280;58429;49.826;10.880;2022-10-16T04:15:21;98575;;;15.44;86.67
4326;BME280;58429;49.826;10.880;2022-10-16T04:16:21;98570;;;15.44;86.69
4326;BME280;58429;49.826;10.880;2022-10-16T04:17:21;98588;;;15.42;86.74
4326;BME280;58429;49.826;10.880;2022-10-16T04:18:21;98587;;;15.44;86.8
4326;BME280;58429;49.826;10.880;2022-10-16T04:19:21;98586;;;15.44;86.79
4326;BME280;58429;49.826;10.880;2022-10-16T04:20:21;98596;;;15.43;86.78
4326;BME280;58429;49.826;10.880;2022-10-16T04:21:21;98592;;;15.46;86.76
4326;BME280;58429;49.826;10.880;2022-10-16T04:22:21;98584;;;15.44;86.72
4326;BME280;58429;49.826;10.880;2022-10-16T04:23:21;98583;;;15.45;86.7
4326;BME280;58429;49.826;10.880;2022-10-16T04:24:21;98590;;;15.45;86.69
4326;BME280;58429;49.826;10.880;2022-10-16T04:25:21;98591;;;15.44;86.7
4326;BME280;58429;49.826;10.880;2022-10-16T04:26:21;98595;;;15.43;86.69
4326;BME280;58429;49.826;10.880;2022-10-16T04:27:21;98588;;;15.44;86.7
4326;BME280;58429;49.826;10.880;2022-10-16T04:28:21;98590;;;15.44;86.71
4326;BME280;58429;49.826;10.880;2022-10-16T04:29:21;98593;;;15.46;86.74
4326;BME280;58429;49.826;10.880;2022-10-16T04:30:21;98594;;;15.4;86.73
4326;BME280;58429;49.826;10.880;2022-10-16T04:31:21;98586;;;15.44;86.74
4326;BME280;58429;49.826;10.880;2022-10-16T04:32:21;98581;;;15.43;86.75
4326;BME280;58429;49.826;10.880;2022-10-16T04:33:21;98583;;;15.44;86.78
4326;BME280;58429;49.826;10.880;2022-10-16T04:34:22;98581;;;15.38;86.76
4326;BME280;58429;49.826;10.880;2022-10-16T04:35:21;98582;;;15.39;86.74
4326;BME280;58429;49.826;10.880;2022-10-16T04:36:21;98587;;;15.41;86.77
4326;BME280;58429;49.826;10.880;2022-10-16T04:37:23;98582;;;15.38;86.74
4326;BME280;58429;49.826;10.880;2022-10-16T04:38:21;98591;;;15.4;86.73
4326;BME280;58429;49.826;10.880;2022-10-16T04:39:21;98591;;;15.4;86.73
4326;BME280;58429;49.826;10.880;2022-10-16T04:40:21;98598;;;15.37;86.71
4326;BME280;58429;49.826;10.880;2022-10-16T04:41:21;98595;;;15.41;86.75
4326;BME280;58429;49.826;10.880;2022-10-16T04:42:21;98595;;;15.36;86.72
4326;BME280;58429;49.826;10.880;2022-10-16T04:43:21;98588;;;15.38;86.73
4326;BME280;58429;49.826;10.880;2022-10-16T04:44:21;98592;;;15.38;86.79
4326;BME280;58429;49.826;10.880;2022-10-16T04:45:21;98590;;;15.36;86.79
4326;BME280;58429;49.826;10.880;2022-10-16T04:46:21;98588;;;15.36;86.81
4326;BME280;58429;49.826;10.880;2022-10-16T04:47:21;98583;;;15.36;86.78
4326;BME280;58429;49.826;10.880;2022-10-16T04:48:21;98581;;;15.38;86.79
4326;BME280;58429;49.826;10.880;2022-10-16T04:49:21;98597;;;15.36;86.77
4326;BME280;58429;49.826;10.880;2022-10-16T04:50:21;98592;;;15.36;86.82
4326;BME280;58429;49.826;10.880;2022-10-16T04:51:21;98607;;;15.36;86.85
4326;BME280;58429;49.826;10.880;2022-10-16T04:52:21;98601;;;15.36;86.83
4326;BME280;58429;49.826;10.880;2022-10-16T04:53:21;98603;;;15.38;86.9
4326;BME280;58429;49.826;10.880;2022-10-16T04:54:21;98600;;;15.36;86.86
4326;BME280;58429;49.826;10.880;2022-10-16T04:55:21;98603;;;15.36;86.84
4326;BME280;58429;49.826;10.880;2022-10-16T04:56:21;98604;;;15.35;86.86
4326;BME280;58429;49.826;10.880;2022-10-16T04:57:21;98600;;;15.36;86.87
4326;BME280;58429;49.826;10.880;2022-10-16T04:58:21;98603;;;15.36;86.92
4326;BME280;58429;49.826;10.880;2022-10-16T04:59:22;98598;;;15.34;86.86
4326;BME280;58429;49.826;10.880;2022-10-16T05:00:21;98601;;;15.34;86.83
4326;BME280;58429;49.826;10.880;2022-10-16T05:01:21;98603;;;15.37;86.89
4326;BME280;58429;49.826;10.880;2022-10-16T05:02:21;98595;;;15.36;86.86
4326;BME280;58429;49.826;10.880;2022-10-16T05:03:21;98595;;;15.36;86.87
4326;BME280;58429;49.826;10.880;2022-10-16T05:04:21;98593;;;15.34;86.85
4326;BME280;58429;49.826;10.880;2022-10-16T05:05:21;98597;;;15.35;86.83
4326;BME280;58429;49.826;10.880;2022-10-16T05:06:21;98602;;;15.34;86.86
4326;BME280;58429;49.826;10.880;2022-10-16T05:07:21;98600;;;15.34;86.86
4326;BME280;58429;49.826;10.880;2022-10-16T05:08:21;98600;;;15.37;86.83
4326;BME280;58429;49.826;10.880;2022-10-16T05:09:21;98599;;;15.34;86.87
4326;BME280;58429;49.826;10.880;2022-10-16T05:10:21;98598;;;15.36;86.88
4326;BME280;58429;49.826;10.880;2022-10-16T05:11:22;98601;;;15.35;86.89
4326;BME280;58429;49.826;10.880;2022-10-16T05:12:21;98593;;;15.34;86.9
4326;BME280;58429;49.826;10.880;2022-10-16T05:13:21;98590;;;15.36;87.07
4326;BME280;58429;49.826;10.880;2022-10-16T05:14:21;98590;;;15.34;87.03
4326;BME280;58429;49.826;10.880;2022-10-16T05:15:21;98600;;;15.32;87.01
4326;BME280;58429;49.826;10.880;2022-10-16T05:16:21;98593;;;15.31;87.03
4326;BME280;58429;49.826;10.880;2022-10-16T05:17:21;98592;;;15.32;87.02
4326;BME280;58429;49.826;10.880;2022-10-16T05:18:21;98602;;;15.33;87.02
4326;BME280;58429;49.826;10.880;2022-10-16T05:19:22;98601;;;15.31;86.95
4326;BME280;58429;49.826;10.880;2022-10-16T05:20:21;98612;;;15.34;86.97
4326;BME280;58429;49.826;10.880;2022-10-16T05:21:21;98611;;;15.33;86.95
4326;BME280;58429;49.826;10.880;2022-10-16T05:22:21;98609;;;15.35;86.93
4326;BME280;58429;49.826;10.880;2022-10-16T05:23:21;98618;;;15.34;86.92
4326;BME280;58429;49.826;10.880;2022-10-16T05:24:26;98617;;;15.33;86.89
4326;BME280;58429;49.826;10.880;2022-10-16T05:25:21;98617;;;15.35;86.86
4326;BME280;58429;49.826;10.880;2022-10-16T05:26:21;98621;;;15.34;86.9
4326;BME280;58429;49.826;10.880;2022-10-16T05:27:22;98626;;;15.34;86.89
4326;BME280;58429;49.826;10.880;2022-10-16T05:28:21;98621;;;15.35;86.91
4326;BME280;58429;49.826;10.880;2022-10-16T05:29:21;98630;;;15.34;86.92
4326;BME280;58429;49.826;10.880;2022-10-16T05:30:21;98636;;;15.34;86.94
4326;BME280;58429;49.826;10.880;2022-10-16T05:31:21;98632;;;15.32;86.91